Time;durP1;ratioP1;P1;durP2;ratioP2;P2;SDS_P1;SDS_P2;PMS_P1;PMS_P2;Temp;Humidity;BMP_temperature;BMP_pressure;BME280_temperature;BME280_humidity;BME280_pressure;Samples;Min_cycle;Max_cycle;Signal;HPM_P1;HPM_P2
2022/11/30 00:01:36;;;;;;;41.4;20.8;;;;;;;0.2;91.3;99640;;;;
2022/11/30 00:11:36;;;;;;;41.4;20.8;;;;;;;0.1;91.2;99640;;;;
2022/11/30 00:21:36;;;;;;;40.7;20.9;;;;;;;-0.1;91.1;99650;;;;
2022/11/30 00:32:36;;;;;;;40.7;20.9;;;;;;;0;91;99650;;;;
2022/11/30 00:42:36;;;;;;;40.7;20.9;;;;;;;-0.1;91;99660;;;;
2022/11/30 00:52:36;;;;;;;35.3;18.6;;;;;;;-0.1;91.3;99660;;;;
2022/11/30 01:03:36;;;;;;;35.3;18.6;;;;;;;-0.1;91.3;99650;;;;
2022/11/30 01:13:36;;;;;;;35.3;18.6;;;;;;;-0.1;91;99650;;;;
2022/11/30 01:23:36;;;;;;;32;17.3;;;;;;;-0.1;91.1;99650;;;;
2022/11/30 01:34:36;;;;;;;32;17.3;;;;;;;-0.1;91.1;99650;;;;
2022/11/30 01:45:36;;;;;;;39.1;18.2;;;;;;;-0.3;91.4;99650;;;;
2022/11/30 01:55:36;;;;;;;39.1;18.2;;;;;;;-0.2;91.5;99660;;;;
2022/11/30 02:05:36;;;;;;;39.1;18.2;;;;;;;-0.2;91.6;99680;;;;
2022/11/30 02:16:36;;;;;;;37.1;19.2;;;;;;;-0.2;91.5;99680;;;;
2022/11/30 02:27:36;;;;;;;37.1;19.2;;;;;;;-0.1;91.4;99680;;;;
2022/11/30 02:38:36;;;;;;;37.1;19.2;;;;;;;-0.1;91.2;99680;;;;
2022/11/30 02:48:36;;;;;;;29;15.1;;;;;;;0;91.1;99680;;;;
2022/11/30 02:58:36;;;;;;;29;15.1;;;;;;;-0.1;90.9;99680;;;;
2022/11/30 03:08:36;;;;;;;29;15.1;;;;;;;-0.1;90.8;99680;;;;
2022/11/30 03:18:36;;;;;;;32.2;14.7;;;;;;;-0.3;90.8;99690;;;;
2022/11/30 03:29:36;;;;;;;32.2;14.7;;;;;;;-0.3;91;99700;;;;
2022/11/30 03:39:36;;;;;;;32.2;14.7;;;;;;;-0.4;91.4;99710;;;;
2022/11/30 03:50:36;;;;;;;32.4;15.8;;;;;;;-0.3;91.4;99710;;;;
2022/11/30 04:01:38;;;;;;;32.4;15.8;;;;;;;-0.6;91.3;99700;;;;
2022/11/30 04:12:36;;;;;;;32.4;15.8;;;;;;;-0.7;91.4;99710;;;;
2022/11/30 04:23:36;;;;;;;26.4;14.5;;;;;;;-0.7;91.5;99720;;;;
2022/11/30 04:34:36;;;;;;;26.4;14.5;;;;;;;-0.7;91.5;99730;;;;
2022/11/30 04:45:36;;;;;;;26;14.2;;;;;;;-0.8;91.5;99730;;;;
2022/11/30 04:55:36;;;;;;;26;14.2;;;;;;;-0.9;91.5;99740;;;;
2022/11/30 05:06:36;;;;;;;26;14.2;;;;;;;-0.9;91.5;99740;;;;
2022/11/30 05:17:36;;;;;;;26.4;13.7;;;;;;;-0.9;91.5;99730;;;;
2022/11/30 05:28:36;;;;;;;26.4;13.7;;;;;;;-0.9;91.6;99750;;;;
2022/11/30 05:38:36;;;;;;;26.4;13.7;;;;;;;-0.9;91.5;99740;;;;
2022/11/30 05:49:36;;;;;;;31.3;13.9;;;;;;;-1;91.3;99740;;;;
2022/11/30 05:59:36;;;;;;;31.3;13.9;;;;;;;-0.9;91.4;99760;;;;
2022/11/30 06:09:36;;;;;;;31.3;13.9;;;;;;;-0.8;91.2;99760;;;;
2022/11/30 06:19:36;;;;;;;25.3;12.3;;;;;;;-1;90.9;99760;;;;
2022/11/30 06:30:36;;;;;;;25.3;12.3;;;;;;;-0.8;90.9;99770;;;;
2022/11/30 06:40:36;;;;;;;25.3;12.3;;;;;;;-0.7;90.5;99780;;;;
2022/11/30 06:50:36;;;;;;;25.7;13.8;;;;;;;-0.8;90.4;99780;;;;
2022/11/30 07:01:36;;;;;;;25.7;13.8;;;;;;;-0.8;90.3;99780;;;;
2022/11/30 07:11:36;;;;;;;25.7;13.8;;;;;;;-1;90.5;99790;;;;
2022/11/30 07:22:36;;;;;;;21.7;12.7;;;;;;;-1.1;90.6;99790;;;;
2022/11/30 07:33:36;;;;;;;21.7;12.7;;;;;;;-0.9;90.6;99800;;;;
2022/11/30 07:44:36;;;;;;;23.2;12.9;;;;;;;-1.2;90.9;99800;;;;
2022/11/30 07:54:36;;;;;;;23.2;12.9;;;;;;;-1;91;99810;;;;
2022/11/30 08:04:36;;;;;;;23.2;12.9;;;;;;;-1.1;90.7;99810;;;;
2022/11/30 08:15:36;;;;;;;23.2;13;;;;;;;-0.9;90.8;99820;;;;
2022/11/30 08:25:36;;;;;;;23.2;13;;;;;;;-0.9;90.5;99810;;;;
2022/11/30 08:36:36;;;;;;;23.2;13;;;;;;;-1.1;90.3;99820;;;;
2022/11/30 08:47:36;;;;;;;25;13;;;;;;;-1;90.6;99830;;;;
2022/11/30 08:57:36;;;;;;;25;13;;;;;;;-0.8;90.4;99820;;;;
2022/11/30 09:08:36;;;;;;;25;13;;;;;;;-0.7;90.2;99820;;;;
2022/11/30 09:18:36;;;;;;;24.4;15.4;;;;;;;-0.8;90;99830;;;;
2022/11/30 09:28:36;;;;;;;24.4;15.4;;;;;;;-0.8;90;99820;;;;
2022/11/30 09:39:36;;;;;;;24.4;15.4;;;;;;;-0.6;89.8;99820;;;;
2022/11/30 09:50:36;;;;;;;28.9;18.1;;;;;;;-0.3;89.3;99810;;;;
2022/11/30 10:01:36;;;;;;;28.9;18.1;;;;;;;-0.2;88.8;99810;;;;
2022/11/30 10:12:36;;;;;;;28.9;18.1;;;;;;;-0.3;88.5;99800;;;;
2022/11/30 10:22:36;;;;;;;26.3;14.4;;;;;;;-0.4;88.7;99800;;;;
2022/11/30 10:33:36;;;;;;;26.3;14.4;;;;;;;-0.2;88.5;99790;;;;
2022/11/30 10:44:38;;;;;;;22.4;12.6;;;;;;;-0.3;88.5;99790;;;;
2022/11/30 10:54:36;;;;;;;22.4;12.6;;;;;;;-0.5;88.9;99780;;;;
2022/11/30 11:04:36;;;;;;;22.4;12.6;;;;;;;-0.6;89.4;99780;;;;
2022/11/30 11:15:36;;;;;;;23.4;14.2;;;;;;;-0.5;89.6;99780;;;;
2022/11/30 11:26:36;;;;;;;23.4;14.2;;;;;;;-0.4;89.2;99780;;;;
2022/11/30 11:37:40;;;;;;;23.4;14.2;;;;;;;0;89;99780;;;;
2022/11/30 11:47:36;;;;;;;19.7;12;;;;;;;0;88.3;99780;;;;
2022/11/30 11:57:36;;;;;;;19.7;12;;;;;;;-0.1;88.2;99780;;;;
2022/11/30 12:08:36;;;;;;;19.7;12;;;;;;;0;88.3;99770;;;;
2022/11/30 12:18:36;;;;;;;19.6;12.1;;;;;;;-0.1;88;99790;;;;
2022/11/30 12:28:36;;;;;;;19.6;12.1;;;;;;;-0.1;87.7;99790;;;;
2022/11/30 12:39:36;;;;;;;19.6;12.1;;;;;;;-0.2;88;99790;;;;
2022/11/30 12:50:36;;;;;;;22.2;12.2;;;;;;;-0.3;88.3;99790;;;;
2022/11/30 13:00:36;;;;;;;22.2;12.2;;;;;;;-0.3;88.3;99790;;;;
2022/11/30 13:10:36;;;;;;;22.2;12.2;;;;;;;-0.4;88.3;99790;;;;
2022/11/30 13:21:36;;;;;;;21.2;13.3;;;;;;;-0.3;88.5;99790;;;;
2022/11/30 13:31:36;;;;;;;21.2;13.3;;;;;;;-0.2;88.6;99780;;;;
2022/11/30 13:42:36;;;;;;;24.8;13.6;;;;;;;-0.1;88.5;99770;;;;
2022/11/30 13:52:36;;;;;;;24.8;13.6;;;;;;;-0.2;88.1;99770;;;;
2022/11/30 14:03:37;;;;;;;24.8;13.6;;;;;;;-0.3;88.2;99770;;;;
2022/11/30 14:13:36;;;;;;;27.2;16.5;;;;;;;-0.2;88.2;99770;;;;
2022/11/30 14:24:36;;;;;;;27.2;16.5;;;;;;;-0.3;88.6;99770;;;;
2022/11/30 14:35:39;;;;;;;27.2;16.5;;;;;;;-0.2;88.6;99760;;;;
2022/11/30 14:46:36;;;;;;;27.6;16.6;;;;;;;-0.1;88.6;99770;;;;
2022/11/30 14:57:36;;;;;;;27.6;16.6;;;;;;;-0.3;88.8;99780;;;;
2022/11/30 15:08:36;;;;;;;27.6;16.6;;;;;;;-0.2;88.5;99780;;;;
2022/11/30 15:19:36;;;;;;;31.3;16.9;;;;;;;-0.1;88.7;99790;;;;
2022/11/30 15:29:36;;;;;;;31.3;16.9;;;;;;;-0.2;88.7;99800;;;;
2022/11/30 15:40:36;;;;;;;31.3;16.9;;;;;;;-0.2;88.9;99810;;;;
2022/11/30 15:51:36;;;;;;;29.7;15.9;;;;;;;-0.1;88.7;99810;;;;
2022/11/30 16:01:36;;;;;;;29.7;15.9;;;;;;;-0.1;88.8;99820;;;;
2022/11/30 16:12:36;;;;;;;26;15.1;;;;;;;-0.2;88.8;99820;;;;
2022/11/30 16:23:36;;;;;;;26;15.1;;;;;;;-0.2;88.6;99830;;;;
2022/11/30 16:33:36;;;;;;;26;15.1;;;;;;;0;88.5;99840;;;;
2022/11/30 16:44:36;;;;;;;26;15.4;;;;;;;0.1;88.2;99830;;;;
2022/11/30 16:55:36;;;;;;;26;15.4;;;;;;;0.1;87.4;99830;;;;
2022/11/30 17:05:36;;;;;;;26;15.4;;;;;;;0.1;87.4;99830;;;;
2022/11/30 17:15:36;;;;;;;18.8;11.4;;;;;;;0.1;87.3;99830;;;;
2022/11/30 17:26:36;;;;;;;18.8;11.4;;;;;;;0;87.4;99840;;;;
2022/11/30 17:37:36;;;;;;;18.8;11.4;;;;;;;0.1;87.2;99840;;;;
2022/11/30 17:47:36;;;;;;;18.7;12;;;;;;;0.2;87.4;99840;;;;
2022/11/30 17:57:37;;;;;;;18.7;12;;;;;;;0.3;87.3;99830;;;;
2022/11/30 18:08:37;;;;;;;18.7;12;;;;;;;0.3;87.1;99830;;;;
2022/11/30 18:19:36;;;;;;;27.9;12.6;;;;;;;0.3;87;99840;;;;
2022/11/30 18:30:36;;;;;;;27.9;12.6;;;;;;;0;87.3;99840;;;;
2022/11/30 18:40:36;;;;;;;27.9;12.6;;;;;;;-0.1;87.3;99840;;;;
2022/11/30 18:51:36;;;;;;;34.3;20.2;;;;;;;0;87.2;99850;;;;
2022/11/30 19:02:37;;;;;;;34.3;20.2;;;;;;;-0.1;87.9;99860;;;;
2022/11/30 19:13:36;;;;;;;29.2;16.7;;;;;;;-0.2;87.9;99860;;;;
2022/11/30 19:24:37;;;;;;;29.2;16.7;;;;;;;-0.2;88.3;99860;;;;
2022/11/30 19:34:36;;;;;;;29.2;16.7;;;;;;;-0.2;88.4;99870;;;;
2022/11/30 19:44:36;;;;;;;31.4;16.7;;;;;;;-0.2;88.1;99860;;;;
2022/11/30 19:55:36;;;;;;;31.4;16.7;;;;;;;-0.2;88.1;99850;;;;
2022/11/30 20:05:36;;;;;;;31.4;16.7;;;;;;;-0.2;88.1;99870;;;;
2022/11/30 20:16:36;;;;;;;23.1;12.7;;;;;;;-0.2;88.3;99870;;;;
2022/11/30 20:27:36;;;;;;;23.1;12.7;;;;;;;0;88.2;99870;;;;
2022/11/30 20:38:36;;;;;;;23.1;12.7;;;;;;;0.1;88;99860;;;;
2022/11/30 20:48:36;;;;;;;20.4;11.4;;;;;;;0;88.2;99860;;;;
2022/11/30 20:59:38;;;;;;;20.4;11.4;;;;;;;0.1;88.3;99860;;;;
2022/11/30 21:10:36;;;;;;;20.4;11.4;;;;;;;0.1;88.3;99860;;;;
2022/11/30 21:20:36;;;;;;;23;12;;;;;;;0.1;88.2;99860;;;;
2022/11/30 21:30:37;;;;;;;23;12;;;;;;;0.3;88;99860;;;;
2022/11/30 21:41:37;;;;;;;21.5;12.2;;;;;;;0.4;87.7;99850;;;;
2022/11/30 21:52:36;;;;;;;21.5;12.2;;;;;;;0.5;87.5;99850;;;;
2022/11/30 22:02:37;;;;;;;21.5;12.2;;;;;;;0.6;87.3;99850;;;;
2022/11/30 22:13:37;;;;;;;26.5;13.5;;;;;;;0.6;87.1;99840;;;;
2022/11/30 22:23:36;;;;;;;26.5;13.5;;;;;;;0.6;87;99850;;;;
2022/11/30 22:34:37;;;;;;;26.5;13.5;;;;;;;0.5;86.9;99840;;;;
2022/11/30 22:44:36;;;;;;;21.1;12;;;;;;;0.6;86.7;99830;;;;
2022/11/30 22:55:37;;;;;;;21.1;12;;;;;;;0.7;86.7;99840;;;;
2022/11/30 23:05:37;;;;;;;21.1;12;;;;;;;0.6;86.6;99840;;;;
2022/11/30 23:16:37;;;;;;;21.3;12.4;;;;;;;0.8;86.5;99830;;;;
2022/11/30 23:26:36;;;;;;;21.3;12.4;;;;;;;0.9;86.7;99830;;;;
2022/11/30 23:37:37;;;;;;;21.3;12.4;;;;;;;0.9;86.8;99810;;;;
2022/11/30 23:47:37;;;;;;;30.1;14.3;;;;;;;1;86.9;99800;;;;
2022/11/30 23:58:38;;;;;;;30.1;14.3;;;;;;;0.9;87;99800;;;;
